sensor_id;sensor_type;location;lat;lon;timestamp;P1;durP1;ratioP1;P2;durP2;ratioP2
2438;SDS011;14509;47.992;7.848;2022-10-18T00:00:59;5.83;;;2.73;;
2438;SDS011;14509;47.992;7.848;2022-10-18T00:03:02;5.80;;;2.20;;
2438;SDS011;14509;47.992;7.848;2022-10-18T00:05:04;4.87;;;2.20;;
2438;SDS011;14509;47.992;7.848;2022-10-18T00:07:09;2.77;;;1.80;;
2438;SDS011;14509;47.992;7.848;2022-10-18T00:09:13;2.60;;;1.83;;
2438;SDS011;14509;47.992;7.848;2022-10-18T00:11:18;2.63;;;1.90;;
2438;SDS011;14509;47.992;7.848;2022-10-18T00:13:20;5.33;;;1.63;;
2438;SDS011;14509;47.992;7.848;2022-10-18T00:15:25;3.93;;;2.10;;
2438;SDS011;14509;47.992;7.848;2022-10-18T00:17:27;2.90;;;2.30;;
2438;SDS011;14509;47.992;7.848;2022-10-18T00:19:31;3.60;;;2.60;;
2438;SDS011;14509;47.992;7.848;2022-10-18T00:21:33;2.77;;;1.43;;
2438;SDS011;14509;47.992;7.848;2022-10-18T00:23:35;3.60;;;2.20;;
2438;SDS011;14509;47.992;7.848;2022-10-18T00:25:41;3.03;;;2.20;;
2438;SDS011;14509;47.992;7.848;2022-10-18T00:27:56;3.13;;;2.17;;
2438;SDS011;14509;47.992;7.848;2022-10-18T00:29:58;2.17;;;2.00;;
2438;SDS011;14509;47.992;7.848;2022-10-18T00:32:01;5.80;;;2.43;;
2438;SDS011;14509;47.992;7.848;2022-10-18T00:34:19;4.87;;;1.80;;
2438;SDS011;14509;47.992;7.848;2022-10-18T00:36:28;4.10;;;2.00;;
2438;SDS011;14509;47.992;7.848;2022-10-18T00:38:31;5.60;;;2.17;;
2438;SDS011;14509;47.992;7.848;2022-10-18T00:40:34;7.03;;;2.23;;
2438;SDS011;14509;47.992;7.848;2022-10-18T00:42:36;3.53;;;2.40;;
2438;SDS011;14509;47.992;7.848;2022-10-18T00:45:00;2.27;;;1.83;;
2438;SDS011;14509;47.992;7.848;2022-10-18T00:47:13;3.10;;;2.90;;
2438;SDS011;14509;47.992;7.848;2022-10-18T00:49:19;2.40;;;2.10;;
2438;SDS011;14509;47.992;7.848;2022-10-18T00:51:24;5.60;;;2.87;;
2438;SDS011;14509;47.992;7.848;2022-10-18T00:53:31;3.73;;;2.67;;
2438;SDS011;14509;47.992;7.848;2022-10-18T00:55:36;3.70;;;2.03;;
2438;SDS011;14509;47.992;7.848;2022-10-18T00:57:42;6.50;;;2.20;;
2438;SDS011;14509;47.992;7.848;2022-10-18T00:59:46;3.03;;;2.03;;
2438;SDS011;14509;47.992;7.848;2022-10-18T01:01:48;2.90;;;2.30;;
2438;SDS011;14509;47.992;7.848;2022-10-18T01:03:56;3.97;;;2.50;;
2438;SDS011;14509;47.992;7.848;2022-10-18T01:06:02;3.13;;;2.00;;
2438;SDS011;14509;47.992;7.848;2022-10-18T01:13:27;2.67;;;1.77;;
2438;SDS011;14509;47.992;7.848;2022-10-18T01:16:18;1.90;;;1.70;;
2438;SDS011;14509;47.992;7.848;2022-10-18T01:18:52;3.37;;;2.07;;
2438;SDS011;14509;47.992;7.848;2022-10-18T01:21:30;3.80;;;2.53;;
2438;SDS011;14509;47.992;7.848;2022-10-18T01:37:26;3.60;;;1.80;;
2438;SDS011;14509;47.992;7.848;2022-10-18T01:39:33;2.07;;;1.87;;
2438;SDS011;14509;47.992;7.848;2022-10-18T01:41:37;2.70;;;2.30;;
2438;SDS011;14509;47.992;7.848;2022-10-18T01:43:42;2.40;;;2.20;;
2438;SDS011;14509;47.992;7.848;2022-10-18T01:45:48;2.47;;;2.20;;
2438;SDS011;14509;47.992;7.848;2022-10-18T01:47:51;2.23;;;2.00;;
2438;SDS011;14509;47.992;7.848;2022-10-18T01:49:56;3.50;;;2.53;;
2438;SDS011;14509;47.992;7.848;2022-10-18T01:52:00;4.53;;;2.83;;
2438;SDS011;14509;47.992;7.848;2022-10-18T01:54:03;3.53;;;2.47;;
2438;SDS011;14509;47.992;7.848;2022-10-18T01:56:15;2.67;;;2.37;;
2438;SDS011;14509;47.992;7.848;2022-10-18T01:58:27;5.93;;;2.23;;
2438;SDS011;14509;47.992;7.848;2022-10-18T02:00:36;6.83;;;2.50;;
2438;SDS011;14509;47.992;7.848;2022-10-18T02:02:41;4.23;;;2.63;;
2438;SDS011;14509;47.992;7.848;2022-10-18T02:04:50;3.70;;;3.00;;
2438;SDS011;14509;47.992;7.848;2022-10-18T02:06:56;2.70;;;2.30;;
2438;SDS011;14509;47.992;7.848;2022-10-18T02:09:06;4.70;;;2.60;;
2438;SDS011;14509;47.992;7.848;2022-10-18T02:11:12;3.00;;;2.70;;
2438;SDS011;14509;47.992;7.848;2022-10-18T02:13:17;10.80;;;2.30;;
2438;SDS011;14509;47.992;7.848;2022-10-18T02:15:22;5.40;;;2.13;;
2438;SDS011;14509;47.992;7.848;2022-10-18T02:17:28;3.00;;;2.60;;
2438;SDS011;14509;47.992;7.848;2022-10-18T02:19:33;4.33;;;3.03;;
2438;SDS011;14509;47.992;7.848;2022-10-18T02:21:38;4.03;;;2.23;;
2438;SDS011;14509;47.992;7.848;2022-10-18T02:23:42;3.53;;;2.37;;
2438;SDS011;14509;47.992;7.848;2022-10-18T02:25:47;3.43;;;2.83;;
2438;SDS011;14509;47.992;7.848;2022-10-18T02:27:50;4.13;;;2.60;;
2438;SDS011;14509;47.992;7.848;2022-10-18T02:29:53;8.40;;;3.20;;
2438;SDS011;14509;47.992;7.848;2022-10-18T02:31:56;6.33;;;2.50;;
2438;SDS011;14509;47.992;7.848;2022-10-18T02:34:04;2.80;;;2.20;;
2438;SDS011;14509;47.992;7.848;2022-10-18T02:36:12;4.80;;;3.70;;
2438;SDS011;14509;47.992;7.848;2022-10-18T02:38:18;3.70;;;2.47;;
2438;SDS011;14509;47.992;7.848;2022-10-18T02:40:21;3.27;;;2.97;;
2438;SDS011;14509;47.992;7.848;2022-10-18T02:42:28;8.23;;;3.20;;
2438;SDS011;14509;47.992;7.848;2022-10-18T02:44:35;4.00;;;2.90;;
2438;SDS011;14509;47.992;7.848;2022-10-18T02:46:38;3.10;;;2.70;;
2438;SDS011;14509;47.992;7.848;2022-10-18T02:48:40;3.30;;;2.40;;
2438;SDS011;14509;47.992;7.848;2022-10-18T02:50:42;3.77;;;2.83;;
2438;SDS011;14509;47.992;7.848;2022-10-18T02:52:44;3.93;;;2.50;;
2438;SDS011;14509;47.992;7.848;2022-10-18T02:54:46;6.53;;;2.40;;
2438;SDS011;14509;47.992;7.848;2022-10-18T02:56:49;2.87;;;2.57;;
2438;SDS011;14509;47.992;7.848;2022-10-18T02:58:52;2.67;;;2.40;;
2438;SDS011;14509;47.992;7.848;2022-10-18T03:00:55;5.90;;;2.77;;
2438;SDS011;14509;47.992;7.848;2022-10-18T03:02:59;5.23;;;4.93;;
2438;SDS011;14509;47.992;7.848;2022-10-18T03:05:02;4.20;;;2.83;;
2438;SDS011;14509;47.992;7.848;2022-10-18T03:07:04;3.30;;;2.67;;
2438;SDS011;14509;47.992;7.848;2022-10-18T03:09:07;5.60;;;2.53;;
2438;SDS011;14509;47.992;7.848;2022-10-18T03:11:10;4.87;;;2.77;;
2438;SDS011;14509;47.992;7.848;2022-10-18T03:13:12;9.00;;;2.20;;
2438;SDS011;14509;47.992;7.848;2022-10-18T03:15:16;5.90;;;2.67;;
2438;SDS011;14509;47.992;7.848;2022-10-18T03:17:18;13.40;;;3.00;;
2438;SDS011;14509;47.992;7.848;2022-10-18T03:19:20;4.40;;;2.70;;
2438;SDS011;14509;47.992;7.848;2022-10-18T03:21:22;3.53;;;2.43;;
2438;SDS011;14509;47.992;7.848;2022-10-18T03:23:24;4.60;;;1.90;;
2438;SDS011;14509;47.992;7.848;2022-10-18T03:25:26;3.93;;;2.90;;
2438;SDS011;14509;47.992;7.848;2022-10-18T03:27:28;4.30;;;2.50;;
2438;SDS011;14509;47.992;7.848;2022-10-18T03:29:30;3.13;;;2.93;;
2438;SDS011;14509;47.992;7.848;2022-10-18T03:31:33;2.80;;;2.13;;
2438;SDS011;14509;47.992;7.848;2022-10-18T03:33:36;6.60;;;6.00;;
2438;SDS011;14509;47.992;7.848;2022-10-18T03:35:38;4.93;;;3.13;;
2438;SDS011;14509;47.992;7.848;2022-10-18T03:37:40;2.20;;;2.00;;
2438;SDS011;14509;47.992;7.848;2022-10-18T03:39:42;4.97;;;3.67;;
2438;SDS011;14509;47.992;7.848;2022-10-18T03:41:44;4.93;;;2.93;;
2438;SDS011;14509;47.992;7.848;2022-10-18T03:43:46;6.23;;;2.93;;
2438;SDS011;14509;47.992;7.848;2022-10-18T03:45:49;3.40;;;2.57;;
2438;SDS011;14509;47.992;7.848;2022-10-18T03:47:52;2.43;;;2.23;;
2438;SDS011;14509;47.992;7.848;2022-10-18T03:49:54;3.90;;;2.93;;
2438;SDS011;14509;47.992;7.848;2022-10-18T03:51:56;6.43;;;2.90;;
2438;SDS011;14509;47.992;7.848;2022-10-18T03:53:58;6.70;;;3.27;;
2438;SDS011;14509;47.992;7.848;2022-10-18T03:56:00;4.50;;;3.20;;
2438;SDS011;14509;47.992;7.848;2022-10-18T03:58:03;6.03;;;3.00;;
2438;SDS011;14509;47.992;7.848;2022-10-18T04:00:05;3.30;;;3.00;;
2438;SDS011;14509;47.992;7.848;2022-10-18T04:02:12;10.40;;;3.10;;
2438;SDS011;14509;47.992;7.848;2022-10-18T04:04:15;7.73;;;3.33;;
2438;SDS011;14509;47.992;7.848;2022-10-18T04:06:17;5.67;;;3.63;;
2438;SDS011;14509;47.992;7.848;2022-10-18T04:08:19;3.47;;;2.60;;
2438;SDS011;14509;47.992;7.848;2022-10-18T04:10:21;4.80;;;2.63;;
2438;SDS011;14509;47.992;7.848;2022-10-18T04:12:24;7.30;;;2.70;;
2438;SDS011;14509;47.992;7.848;2022-10-18T04:14:26;3.97;;;2.87;;
2438;SDS011;14509;47.992;7.848;2022-10-18T04:16:28;7.97;;;3.33;;
2438;SDS011;14509;47.992;7.848;2022-10-18T04:18:30;3.37;;;2.30;;
2438;SDS011;14509;47.992;7.848;2022-10-18T04:20:33;9.70;;;2.90;;
2438;SDS011;14509;47.992;7.848;2022-10-18T04:22:36;3.90;;;3.43;;
2438;SDS011;14509;47.992;7.848;2022-10-18T04:24:38;3.70;;;3.10;;
2438;SDS011;14509;47.992;7.848;2022-10-18T04:26:40;5.53;;;2.90;;
2438;SDS011;14509;47.992;7.848;2022-10-18T04:28:42;3.43;;;3.13;;
2438;SDS011;14509;47.992;7.848;2022-10-18T04:30:47;3.40;;;2.40;;
2438;SDS011;14509;47.992;7.848;2022-10-18T04:32:50;4.70;;;2.23;;
2438;SDS011;14509;47.992;7.848;2022-10-18T04:34:52;4.17;;;2.87;;
2438;SDS011;14509;47.992;7.848;2022-10-18T04:36:56;4.03;;;2.63;;
2438;SDS011;14509;47.992;7.848;2022-10-18T04:38:57;7.30;;;4.73;;
2438;SDS011;14509;47.992;7.848;2022-10-18T04:41:00;12.67;;;3.83;;
2438;SDS011;14509;47.992;7.848;2022-10-18T04:43:02;4.10;;;2.63;;
2438;SDS011;14509;47.992;7.848;2022-10-18T04:45:04;9.30;;;3.63;;
2438;SDS011;14509;47.992;7.848;2022-10-18T04:47:07;6.47;;;3.37;;
2438;SDS011;14509;47.992;7.848;2022-10-18T04:49:09;5.60;;;2.90;;
2438;SDS011;14509;47.992;7.848;2022-10-18T04:51:11;4.03;;;3.07;;
2438;SDS011;14509;47.992;7.848;2022-10-18T04:53:16;2.90;;;2.60;;
2438;SDS011;14509;47.992;7.848;2022-10-18T04:55:18;4.83;;;3.23;;
2438;SDS011;14509;47.992;7.848;2022-10-18T04:57:21;6.37;;;3.00;;
2438;SDS011;14509;47.992;7.848;2022-10-18T04:59:23;4.63;;;3.20;;
2438;SDS011;14509;47.992;7.848;2022-10-18T05:01:25;5.80;;;3.20;;
2438;SDS011;14509;47.992;7.848;2022-10-18T05:03:27;4.70;;;3.50;;
2438;SDS011;14509;47.992;7.848;2022-10-18T05:05:29;8.73;;;4.50;;
2438;SDS011;14509;47.992;7.848;2022-10-18T05:07:31;5.77;;;2.97;;
2438;SDS011;14509;47.992;7.848;2022-10-18T05:09:34;4.20;;;3.20;;
2438;SDS011;14509;47.992;7.848;2022-10-18T05:11:36;3.73;;;3.40;;
2438;SDS011;14509;47.992;7.848;2022-10-18T05:13:39;5.07;;;3.20;;
2438;SDS011;14509;47.992;7.848;2022-10-18T05:15:41;6.90;;;3.60;;
2438;SDS011;14509;47.992;7.848;2022-10-18T05:17:43;8.77;;;3.27;;
2438;SDS011;14509;47.992;7.848;2022-10-18T05:19:45;8.93;;;4.33;;
2438;SDS011;14509;47.992;7.848;2022-10-18T05:21:47;4.70;;;2.90;;
2438;SDS011;14509;47.992;7.848;2022-10-18T05:23:49;10.37;;;2.80;;
2438;SDS011;14509;47.992;7.848;2022-10-18T05:25:59;4.80;;;3.30;;
2438;SDS011;14509;47.992;7.848;2022-10-18T05:28:02;6.50;;;3.53;;
2438;SDS011;14509;47.992;7.848;2022-10-18T05:30:05;4.97;;;3.60;;
2438;SDS011;14509;47.992;7.848;2022-10-18T05:32:08;4.10;;;3.30;;
2438;SDS011;14509;47.992;7.848;2022-10-18T05:34:10;3.23;;;2.53;;
2438;SDS011;14509;47.992;7.848;2022-10-18T05:36:12;9.77;;;3.10;;
2438;SDS011;14509;47.992;7.848;2022-10-18T05:38:14;6.00;;;3.50;;
2438;SDS011;14509;47.992;7.848;2022-10-18T05:40:17;7.57;;;3.30;;
2438;SDS011;14509;47.992;7.848;2022-10-18T05:42:23;3.53;;;3.10;;
2438;SDS011;14509;47.992;7.848;2022-10-18T05:44:25;4.00;;;3.70;;
2438;SDS011;14509;47.992;7.848;2022-10-18T05:46:28;6.53;;;3.27;;
2438;SDS011;14509;47.992;7.848;2022-10-18T05:48:30;4.50;;;3.20;;
2438;SDS011;14509;47.992;7.848;2022-10-18T05:50:32;7.23;;;4.07;;
2438;SDS011;14509;47.992;7.848;2022-10-18T05:52:35;7.23;;;3.63;;
2438;SDS011;14509;47.992;7.848;2022-10-18T05:54:37;9.80;;;5.80;;
2438;SDS011;14509;47.992;7.848;2022-10-18T05:56:43;4.60;;;3.40;;
2438;SDS011;14509;47.992;7.848;2022-10-18T05:59:14;3.50;;;3.17;;
2438;SDS011;14509;47.992;7.848;2022-10-18T06:01:16;8.70;;;4.40;;
2438;SDS011;14509;47.992;7.848;2022-10-18T06:03:19;9.17;;;3.80;;
2438;SDS011;14509;47.992;7.848;2022-10-18T06:05:21;4.77;;;3.40;;
2438;SDS011;14509;47.992;7.848;2022-10-18T06:07:23;7.57;;;3.80;;
2438;SDS011;14509;47.992;7.848;2022-10-18T06:09:25;7.07;;;3.17;;
2438;SDS011;14509;47.992;7.848;2022-10-18T06:11:30;6.13;;;3.90;;
2438;SDS011;14509;47.992;7.848;2022-10-18T06:13:39;9.03;;;4.40;;
2438;SDS011;14509;47.992;7.848;2022-10-18T06:15:44;9.67;;;4.30;;
2438;SDS011;14509;47.992;7.848;2022-10-18T06:17:48;10.83;;;4.30;;
2438;SDS011;14509;47.992;7.848;2022-10-18T06:19:53;6.90;;;4.77;;
2438;SDS011;14509;47.992;7.848;2022-10-18T06:21:55;5.67;;;3.57;;
2438;SDS011;14509;47.992;7.848;2022-10-18T06:23:58;4.30;;;2.60;;
2438;SDS011;14509;47.992;7.848;2022-10-18T06:26:01;3.23;;;2.83;;
2438;SDS011;14509;47.992;7.848;2022-10-18T06:28:51;2.67;;;2.47;;
2438;SDS011;14509;47.992;7.848;2022-10-18T06:30:55;3.30;;;3.00;;
2438;SDS011;14509;47.992;7.848;2022-10-18T06:32:58;4.00;;;3.00;;
2438;SDS011;14509;47.992;7.848;2022-10-18T06:35:02;2.73;;;2.53;;
2438;SDS011;14509;47.992;7.848;2022-10-18T06:37:05;4.43;;;3.07;;
2438;SDS011;14509;47.992;7.848;2022-10-18T06:39:07;4.67;;;2.50;;
2438;SDS011;14509;47.992;7.848;2022-10-18T06:41:11;4.80;;;2.70;;
2438;SDS011;14509;47.992;7.848;2022-10-18T06:43:14;3.40;;;2.83;;
2438;SDS011;14509;47.992;7.848;2022-10-18T06:48:46;4.47;;;2.70;;
2438;SDS011;14509;47.992;7.848;2022-10-18T06:50:49;2.83;;;2.63;;
2438;SDS011;14509;47.992;7.848;2022-10-18T06:52:52;4.63;;;2.90;;
2438;SDS011;14509;47.992;7.848;2022-10-18T06:54:55;3.17;;;2.83;;
2438;SDS011;14509;47.992;7.848;2022-10-18T06:56:57;4.60;;;2.80;;
2438;SDS011;14509;47.992;7.848;2022-10-18T06:59:01;5.17;;;3.30;;
2438;SDS011;14509;47.992;7.848;2022-10-18T07:01:04;6.33;;;3.60;;
2438;SDS011;14509;47.992;7.848;2022-10-18T07:03:07;4.67;;;3.10;;
2438;SDS011;14509;47.992;7.848;2022-10-18T07:05:11;4.70;;;3.37;;
2438;SDS011;14509;47.992;7.848;2022-10-18T07:07:13;3.33;;;2.80;;
2438;SDS011;14509;47.992;7.848;2022-10-18T07:09:15;3.30;;;2.67;;
2438;SDS011;14509;47.992;7.848;2022-10-18T07:11:19;4.60;;;2.57;;
2438;SDS011;14509;47.992;7.848;2022-10-18T07:13:26;4.00;;;2.73;;
2438;SDS011;14509;47.992;7.848;2022-10-18T07:15:32;4.43;;;2.73;;
2438;SDS011;14509;47.992;7.848;2022-10-18T07:17:37;3.93;;;2.30;;
2438;SDS011;14509;47.992;7.848;2022-10-18T07:19:39;3.70;;;2.90;;
2438;SDS011;14509;47.992;7.848;2022-10-18T07:21:45;5.20;;;2.60;;
2438;SDS011;14509;47.992;7.848;2022-10-18T07:23:48;4.80;;;2.57;;
2438;SDS011;14509;47.992;7.848;2022-10-18T07:25:52;4.57;;;2.43;;
2438;SDS011;14509;47.992;7.848;2022-10-18T07:27:54;4.00;;;2.07;;
2438;SDS011;14509;47.992;7.848;2022-10-18T07:29:57;7.83;;;2.77;;
2438;SDS011;14509;47.992;7.848;2022-10-18T07:31:59;8.13;;;2.80;;
2438;SDS011;14509;47.992;7.848;2022-10-18T07:34:03;2.90;;;2.27;;
2438;SDS011;14509;47.992;7.848;2022-10-18T07:36:11;5.57;;;2.57;;
2438;SDS011;14509;47.992;7.848;2022-10-18T07:38:15;4.13;;;3.00;;
2438;SDS011;14509;47.992;7.848;2022-10-18T07:40:18;3.80;;;2.57;;
2438;SDS011;14509;47.992;7.848;2022-10-18T07:42:22;3.87;;;2.77;;
2438;SDS011;14509;47.992;7.848;2022-10-18T07:44:25;2.00;;;1.77;;
2438;SDS011;14509;47.992;7.848;2022-10-18T07:46:27;3.00;;;2.70;;
2438;SDS011;14509;47.992;7.848;2022-10-18T07:48:30;4.17;;;2.20;;
2438;SDS011;14509;47.992;7.848;2022-10-18T07:50:35;6.60;;;2.57;;
2438;SDS011;14509;47.992;7.848;2022-10-18T19:08:54;13.73;;;7.30;;
2438;SDS011;14509;47.992;7.848;2022-10-18T19:11:00;10.50;;;5.67;;
2438;SDS011;14509;47.992;7.848;2022-10-18T19:13:05;6.18;;;5.10;;
2438;SDS011;14509;47.992;7.848;2022-10-18T19:15:09;6.90;;;5.03;;
2438;SDS011;14509;47.992;7.848;2022-10-18T19:17:12;9.10;;;4.43;;
2438;SDS011;14509;47.992;7.848;2022-10-18T19:19:16;5.37;;;4.87;;
2438;SDS011;14509;47.992;7.848;2022-10-18T19:21:35;6.03;;;4.57;;
2438;SDS011;14509;47.992;7.848;2022-10-18T19:23:42;7.03;;;4.97;;
2438;SDS011;14509;47.992;7.848;2022-10-18T19:25:48;11.10;;;4.80;;
2438;SDS011;14509;47.992;7.848;2022-10-18T20:11:11;7.97;;;5.00;;
2438;SDS011;14509;47.992;7.848;2022-10-18T20:13:14;9.23;;;4.77;;
2438;SDS011;14509;47.992;7.848;2022-10-18T20:15:16;7.73;;;5.07;;
2438;SDS011;14509;47.992;7.848;2022-10-18T20:17:18;7.57;;;3.83;;
2438;SDS011;14509;47.992;7.848;2022-10-18T20:19:21;5.00;;;4.50;;
2438;SDS011;14509;47.992;7.848;2022-10-18T20:21:23;9.13;;;5.23;;
2438;SDS011;14509;47.992;7.848;2022-10-18T20:23:26;7.73;;;5.53;;
2438;SDS011;14509;47.992;7.848;2022-10-18T20:25:28;12.33;;;5.43;;
2438;SDS011;14509;47.992;7.848;2022-10-18T20:27:32;9.63;;;4.70;;
2438;SDS011;14509;47.992;7.848;2022-10-18T20:29:34;10.20;;;4.53;;
2438;SDS011;14509;47.992;7.848;2022-10-18T20:31:36;4.93;;;4.20;;
2438;SDS011;14509;47.992;7.848;2022-10-18T20:33:38;7.40;;;4.73;;
2438;SDS011;14509;47.992;7.848;2022-10-18T20:35:41;13.13;;;6.27;;
2438;SDS011;14509;47.992;7.848;2022-10-18T20:37:43;8.73;;;4.57;;
2438;SDS011;14509;47.992;7.848;2022-10-18T20:39:45;7.87;;;4.93;;
2438;SDS011;14509;47.992;7.848;2022-10-18T20:41:47;10.80;;;5.00;;
2438;SDS011;14509;47.992;7.848;2022-10-18T20:43:52;4.57;;;4.17;;
2438;SDS011;14509;47.992;7.848;2022-10-18T20:45:55;7.10;;;4.33;;
2438;SDS011;14509;47.992;7.848;2022-10-18T20:47:58;4.30;;;3.70;;
2438;SDS011;14509;47.992;7.848;2022-10-18T20:50:00;5.93;;;4.13;;
2438;SDS011;14509;47.992;7.848;2022-10-18T20:52:02;6.00;;;3.70;;
2438;SDS011;14509;47.992;7.848;2022-10-18T20:54:05;4.90;;;4.30;;
2438;SDS011;14509;47.992;7.848;2022-10-18T20:56:08;7.57;;;5.10;;
2438;SDS011;14509;47.992;7.848;2022-10-18T20:58:11;6.93;;;4.53;;
2438;SDS011;14509;47.992;7.848;2022-10-18T21:00:15;7.40;;;4.23;;
2438;SDS011;14509;47.992;7.848;2022-10-18T21:02:17;5.83;;;4.53;;
2438;SDS011;14509;47.992;7.848;2022-10-18T21:04:19;4.20;;;3.80;;
2438;SDS011;14509;47.992;7.848;2022-10-18T21:06:21;4.53;;;3.90;;
2438;SDS011;14509;47.992;7.848;2022-10-18T21:08:25;13.83;;;4.43;;
2438;SDS011;14509;47.992;7.848;2022-10-18T21:10:27;8.60;;;4.07;;
2438;SDS011;14509;47.992;7.848;2022-10-18T21:12:29;8.00;;;4.47;;
2438;SDS011;14509;47.992;7.848;2022-10-18T21:14:31;4.50;;;4.10;;
2438;SDS011;14509;47.992;7.848;2022-10-18T21:16:34;6.83;;;4.30;;
2438;SDS011;14509;47.992;7.848;2022-10-18T21:18:37;7.00;;;3.90;;
2438;SDS011;14509;47.992;7.848;2022-10-18T21:20:39;6.37;;;3.80;;
2438;SDS011;14509;47.992;7.848;2022-10-18T21:22:41;5.57;;;3.10;;
2438;SDS011;14509;47.992;7.848;2022-10-18T21:24:43;6.03;;;3.67;;
2438;SDS011;14509;47.992;7.848;2022-10-18T21:26:45;10.57;;;3.77;;
2438;SDS011;14509;47.992;7.848;2022-10-18T21:28:48;10.70;;;3.90;;
2438;SDS011;14509;47.992;7.848;2022-10-18T21:30:50;6.90;;;4.27;;
2438;SDS011;14509;47.992;7.848;2022-10-18T21:32:53;4.50;;;3.43;;
2438;SDS011;14509;47.992;7.848;2022-10-18T21:34:55;6.83;;;4.67;;
2438;SDS011;14509;47.992;7.848;2022-10-18T21:36:58;13.63;;;3.90;;
2438;SDS011;14509;47.992;7.848;2022-10-18T21:39:00;4.77;;;4.27;;
2438;SDS011;14509;47.992;7.848;2022-10-18T21:41:06;5.20;;;3.77;;
2438;SDS011;14509;47.992;7.848;2022-10-18T21:43:09;5.17;;;3.83;;
2438;SDS011;14509;47.992;7.848;2022-10-18T21:45:11;4.93;;;4.10;;
2438;SDS011;14509;47.992;7.848;2022-10-18T21:47:13;6.53;;;4.53;;
2438;SDS011;14509;47.992;7.848;2022-10-18T21:49:17;7.27;;;4.43;;
2438;SDS011;14509;47.992;7.848;2022-10-18T21:51:20;4.10;;;3.73;;
2438;SDS011;14509;47.992;7.848;2022-10-18T21:53:23;8.37;;;3.70;;
2438;SDS011;14509;47.992;7.848;2022-10-18T21:55:25;4.20;;;3.60;;
2438;SDS011;14509;47.992;7.848;2022-10-18T21:57:27;6.00;;;4.33;;
2438;SDS011;14509;47.992;7.848;2022-10-18T21:59:29;5.50;;;4.10;;
2438;SDS011;14509;47.992;7.848;2022-10-18T22:01:32;10.80;;;5.17;;
2438;SDS011;14509;47.992;7.848;2022-10-18T22:03:36;7.17;;;3.77;;
2438;SDS011;14509;47.992;7.848;2022-10-18T22:05:39;5.77;;;5.27;;
2438;SDS011;14509;47.992;7.848;2022-10-18T22:07:41;15.37;;;3.80;;
2438;SDS011;14509;47.992;7.848;2022-10-18T22:09:43;4.53;;;3.87;;
2438;SDS011;14509;47.992;7.848;2022-10-18T22:11:46;11.80;;;4.33;;
2438;SDS011;14509;47.992;7.848;2022-10-18T22:13:50;7.10;;;4.03;;
2438;SDS011;14509;47.992;7.848;2022-10-18T22:15:52;6.03;;;4.40;;
2438;SDS011;14509;47.992;7.848;2022-10-18T22:17:55;6.77;;;4.07;;
2438;SDS011;14509;47.992;7.848;2022-10-18T22:19:57;5.13;;;4.10;;
2438;SDS011;14509;47.992;7.848;2022-10-18T22:22:00;5.13;;;4.63;;
2438;SDS011;14509;47.992;7.848;2022-10-18T22:24:02;5.47;;;3.73;;
2438;SDS011;14509;47.992;7.848;2022-10-18T22:26:06;7.90;;;4.47;;
2438;SDS011;14509;47.992;7.848;2022-10-18T22:28:11;6.97;;;4.33;;
2438;SDS011;14509;47.992;7.848;2022-10-18T22:30:13;4.70;;;3.77;;
2438;SDS011;14509;47.992;7.848;2022-10-18T22:32:15;5.50;;;3.93;;
2438;SDS011;14509;47.992;7.848;2022-10-18T22:34:18;10.13;;;4.30;;
2438;SDS011;14509;47.992;7.848;2022-10-18T22:36:21;7.50;;;4.90;;
2438;SDS011;14509;47.992;7.848;2022-10-18T22:38:25;8.90;;;4.40;;
2438;SDS011;14509;47.992;7.848;2022-10-18T22:40:27;6.27;;;4.20;;
2438;SDS011;14509;47.992;7.848;2022-10-18T22:42:29;8.00;;;4.60;;
2438;SDS011;14509;47.992;7.848;2022-10-18T22:44:31;6.10;;;4.30;;
2438;SDS011;14509;47.992;7.848;2022-10-18T22:46:34;9.37;;;5.00;;
2438;SDS011;14509;47.992;7.848;2022-10-18T22:48:36;5.97;;;3.93;;
2438;SDS011;14509;47.992;7.848;2022-10-18T22:50:38;8.83;;;4.53;;
2438;SDS011;14509;47.992;7.848;2022-10-18T22:52:40;7.20;;;4.07;;
2438;SDS011;14509;47.992;7.848;2022-10-18T22:54:44;3.93;;;3.53;;
2438;SDS011;14509;47.992;7.848;2022-10-18T22:56:46;4.20;;;3.80;;
2438;SDS011;14509;47.992;7.848;2022-10-18T22:58:48;10.23;;;4.33;;
2438;SDS011;14509;47.992;7.848;2022-10-18T23:00:50;8.00;;;4.23;;
2438;SDS011;14509;47.992;7.848;2022-10-18T23:03:00;7.80;;;4.17;;
2438;SDS011;14509;47.992;7.848;2022-10-18T23:05:02;7.53;;;4.07;;
2438;SDS011;14509;47.992;7.848;2022-10-18T23:07:05;5.10;;;3.90;;
2438;SDS011;14509;47.992;7.848;2022-10-18T23:09:07;5.70;;;4.70;;
2438;SDS011;14509;47.992;7.848;2022-10-18T23:11:12;5.33;;;3.90;;
2438;SDS011;14509;47.992;7.848;2022-10-18T23:13:14;8.10;;;5.50;;
2438;SDS011;14509;47.992;7.848;2022-10-18T23:15:16;5.57;;;4.23;;
2438;SDS011;14509;47.992;7.848;2022-10-18T23:17:19;16.63;;;4.87;;
2438;SDS011;14509;47.992;7.848;2022-10-18T23:19:21;4.27;;;3.87;;
2438;SDS011;14509;47.992;7.848;2022-10-18T23:21:23;6.30;;;4.93;;
2438;SDS011;14509;47.992;7.848;2022-10-18T23:23:28;4.70;;;4.10;;
2438;SDS011;14509;47.992;7.848;2022-10-18T23:25:33;10.33;;;5.23;;
2438;SDS011;14509;47.992;7.848;2022-10-18T23:27:37;7.43;;;4.53;;
2438;SDS011;14509;47.992;7.848;2022-10-18T23:29:39;7.80;;;4.30;;
2438;SDS011;14509;47.992;7.848;2022-10-18T23:31:41;12.47;;;4.63;;
2438;SDS011;14509;47.992;7.848;2022-10-18T23:33:43;5.83;;;4.43;;
2438;SDS011;14509;47.992;7.848;2022-10-18T23:35:46;5.20;;;3.67;;
2438;SDS011;14509;47.992;7.848;2022-10-18T23:37:47;5.53;;;4.77;;
2438;SDS011;14509;47.992;7.848;2022-10-18T23:39:49;10.13;;;4.30;;
2438;SDS011;14509;47.992;7.848;2022-10-18T23:41:51;6.20;;;4.17;;
2438;SDS011;14509;47.992;7.848;2022-10-18T23:43:55;12.23;;;3.83;;
2438;SDS011;14509;47.992;7.848;2022-10-18T23:45:57;4.17;;;3.77;;
2438;SDS011;14509;47.992;7.848;2022-10-18T23:47:59;5.50;;;4.37;;
2438;SDS011;14509;47.992;7.848;2022-10-18T23:50:00;7.00;;;4.43;;
2438;SDS011;14509;47.992;7.848;2022-10-18T23:52:03;7.13;;;4.10;;
2438;SDS011;14509;47.992;7.848;2022-10-18T23:54:05;6.67;;;4.93;;
2438;SDS011;14509;47.992;7.848;2022-10-18T23:56:08;9.00;;;4.37;;
2438;SDS011;14509;47.992;7.848;2022-10-18T23:58:11;6.00;;;3.20;;
